sensor_id;sensor_type;location;lat;lon;timestamp;temperature;humidity
23681;DHT22;62915;50.832;4.462;2022-10-16T00:00:30;15.60;99.90
23681;DHT22;62915;50.832;4.462;2022-10-16T00:02:58;15.50;99.90
23681;DHT22;62915;50.832;4.462;2022-10-16T00:08:24;15.40;99.90
23681;DHT22;62915;50.832;4.462;2022-10-16T00:10:49;15.40;99.90
23681;DHT22;62915;50.832;4.462;2022-10-16T00:13:15;15.40;99.90
23681;DHT22;62915;50.832;4.462;2022-10-16T00:15:44;15.40;99.90
23681;DHT22;62915;50.832;4.462;2022-10-16T00:18:10;15.50;99.90
23681;DHT22;62915;50.832;4.462;2022-10-16T00:20:35;15.40;99.90
23681;DHT22;62915;50.832;4.462;2022-10-16T00:23:04;15.50;99.90
23681;DHT22;62915;50.832;4.462;2022-10-16T00:25:30;15.50;99.90
23681;DHT22;62915;50.832;4.462;2022-10-16T00:27:58;15.40;99.90
23681;DHT22;62915;50.832;4.462;2022-10-16T00:30:24;15.40;99.90
23681;DHT22;62915;50.832;4.462;2022-10-16T00:32:49;15.40;99.90
23681;DHT22;62915;50.832;4.462;2022-10-16T00:35:15;15.40;99.90
23681;DHT22;62915;50.832;4.462;2022-10-16T00:37:41;15.40;99.90
23681;DHT22;62915;50.832;4.462;2022-10-16T00:40:07;15.40;99.90
23681;DHT22;62915;50.832;4.462;2022-10-16T00:42:34;15.40;99.90
23681;DHT22;62915;50.832;4.462;2022-10-16T00:45:00;15.40;99.90
23681;DHT22;62915;50.832;4.462;2022-10-16T00:50:04;15.40;99.90
23681;DHT22;62915;50.832;4.462;2022-10-16T00:52:31;15.40;99.90
23681;DHT22;62915;50.832;4.462;2022-10-16T00:54:57;15.40;99.90
23681;DHT22;62915;50.832;4.462;2022-10-16T00:57:25;15.40;99.90
23681;DHT22;62915;50.832;4.462;2022-10-16T00:59:51;15.40;99.90
23681;DHT22;62915;50.832;4.462;2022-10-16T01:02:17;15.20;99.90
23681;DHT22;62915;50.832;4.462;2022-10-16T01:04:48;15.20;99.90
23681;DHT22;62915;50.832;4.462;2022-10-16T01:15:09;15.20;99.90
23681;DHT22;62915;50.832;4.462;2022-10-16T01:25:07;15.20;99.90
23681;DHT22;62915;50.832;4.462;2022-10-16T01:27:34;15.20;99.90
23681;DHT22;62915;50.832;4.462;2022-10-16T01:30:15;15.20;99.90
23681;DHT22;62915;50.832;4.462;2022-10-16T01:35:09;15.30;99.90
23681;DHT22;62915;50.832;4.462;2022-10-16T01:38:19;15.40;99.90
23681;DHT22;62915;50.832;4.462;2022-10-16T01:40:25;15.30;99.90
23681;DHT22;62915;50.832;4.462;2022-10-16T01:43:08;15.30;99.90
23681;DHT22;62915;50.832;4.462;2022-10-16T01:45:35;15.30;99.90
23681;DHT22;62915;50.832;4.462;2022-10-16T01:48:02;15.20;99.90
23681;DHT22;62915;50.832;4.462;2022-10-16T01:50:31;15.20;99.90
23681;DHT22;62915;50.832;4.462;2022-10-16T01:52:58;15.20;99.90
23681;DHT22;62915;50.832;4.462;2022-10-16T01:55:31;15.10;99.90
23681;DHT22;62915;50.832;4.462;2022-10-16T01:57:57;15.10;99.90
23681;DHT22;62915;50.832;4.462;2022-10-16T02:00:25;15.10;99.90
23681;DHT22;62915;50.832;4.462;2022-10-16T02:02:52;15.10;99.90
23681;DHT22;62915;50.832;4.462;2022-10-16T02:07:44;15.10;99.90
23681;DHT22;62915;50.832;4.462;2022-10-16T02:10:09;15.10;99.90
23681;DHT22;62915;50.832;4.462;2022-10-16T02:12:36;15.20;99.90
23681;DHT22;62915;50.832;4.462;2022-10-16T02:15:06;15.20;99.90
23681;DHT22;62915;50.832;4.462;2022-10-16T02:17:31;15.20;99.90
23681;DHT22;62915;50.832;4.462;2022-10-16T02:19:57;15.20;99.90
23681;DHT22;62915;50.832;4.462;2022-10-16T02:22:27;15.10;99.90
23681;DHT22;62915;50.832;4.462;2022-10-16T02:24:55;15.10;99.90
23681;DHT22;62915;50.832;4.462;2022-10-16T02:32:33;15.20;99.90
23681;DHT22;62915;50.832;4.462;2022-10-16T02:34:59;15.20;99.90
23681;DHT22;62915;50.832;4.462;2022-10-16T02:37:53;15.10;99.90
23681;DHT22;62915;50.832;4.462;2022-10-16T02:40:21;15.10;99.90
23681;DHT22;62915;50.832;4.462;2022-10-16T02:42:59;15.20;99.90
23681;DHT22;62915;50.832;4.462;2022-10-16T02:48:28;15.20;99.90
23681;DHT22;62915;50.832;4.462;2022-10-16T02:50:53;15.20;99.90
23681;DHT22;62915;50.832;4.462;2022-10-16T02:53:19;15.10;99.90
23681;DHT22;62915;50.832;4.462;2022-10-16T02:55:44;15.20;99.90
23681;DHT22;62915;50.832;4.462;2022-10-16T02:58:10;15.00;99.90
23681;DHT22;62915;50.832;4.462;2022-10-16T03:00:36;15.00;99.90
23681;DHT22;62915;50.832;4.462;2022-10-16T03:06:25;15.10;99.90
23681;DHT22;62915;50.832;4.462;2022-10-16T03:08:51;15.10;99.90
23681;DHT22;62915;50.832;4.462;2022-10-16T03:11:17;15.10;99.90
23681;DHT22;62915;50.832;4.462;2022-10-16T03:13:42;15.00;99.90
23681;DHT22;62915;50.832;4.462;2022-10-16T03:16:12;15.10;99.90
23681;DHT22;62915;50.832;4.462;2022-10-16T03:18:37;15.10;99.90
23681;DHT22;62915;50.832;4.462;2022-10-16T03:21:03;15.00;99.90
23681;DHT22;62915;50.832;4.462;2022-10-16T03:23:30;15.00;99.90
23681;DHT22;62915;50.832;4.462;2022-10-16T03:25:56;15.10;99.90
23681;DHT22;62915;50.832;4.462;2022-10-16T03:28:22;15.10;99.90
23681;DHT22;62915;50.832;4.462;2022-10-16T03:30:47;15.10;99.90
23681;DHT22;62915;50.832;4.462;2022-10-16T03:33:13;15.10;99.90
23681;DHT22;62915;50.832;4.462;2022-10-16T03:35:38;15.10;99.90
23681;DHT22;62915;50.832;4.462;2022-10-16T03:38:04;15.10;99.90
23681;DHT22;62915;50.832;4.462;2022-10-16T03:40:30;15.10;99.90
23681;DHT22;62915;50.832;4.462;2022-10-16T03:42:57;15.10;99.90
23681;DHT22;62915;50.832;4.462;2022-10-16T03:45:23;15.20;99.90
23681;DHT22;62915;50.832;4.462;2022-10-16T03:47:49;15.10;99.90
23681;DHT22;62915;50.832;4.462;2022-10-16T03:50:14;15.20;99.90
23681;DHT22;62915;50.832;4.462;2022-10-16T03:52:41;15.10;99.90
23681;DHT22;62915;50.832;4.462;2022-10-16T03:55:06;15.20;99.90
23681;DHT22;62915;50.832;4.462;2022-10-16T03:57:33;15.10;99.90
23681;DHT22;62915;50.832;4.462;2022-10-16T03:59:59;15.20;99.90
23681;DHT22;62915;50.832;4.462;2022-10-16T04:02:25;15.10;99.90
23681;DHT22;62915;50.832;4.462;2022-10-16T04:04:50;15.00;99.90
23681;DHT22;62915;50.832;4.462;2022-10-16T04:07:16;15.00;99.90
23681;DHT22;62915;50.832;4.462;2022-10-16T04:09:43;15.00;99.90
23681;DHT22;62915;50.832;4.462;2022-10-16T04:12:08;14.90;99.90
23681;DHT22;62915;50.832;4.462;2022-10-16T04:14:34;15.00;99.90
23681;DHT22;62915;50.832;4.462;2022-10-16T04:17:00;15.00;99.90
23681;DHT22;62915;50.832;4.462;2022-10-16T04:19:26;15.00;99.90
23681;DHT22;62915;50.832;4.462;2022-10-16T04:21:52;15.10;99.90
23681;DHT22;62915;50.832;4.462;2022-10-16T04:24:17;15.10;99.90
23681;DHT22;62915;50.832;4.462;2022-10-16T04:26:44;15.10;99.90
23681;DHT22;62915;50.832;4.462;2022-10-16T04:29:10;15.10;99.90
23681;DHT22;62915;50.832;4.462;2022-10-16T04:31:35;15.00;99.90
23681;DHT22;62915;50.832;4.462;2022-10-16T04:34:01;15.00;99.90
23681;DHT22;62915;50.832;4.462;2022-10-16T04:36:27;15.00;99.90
23681;DHT22;62915;50.832;4.462;2022-10-16T04:38:54;15.00;99.90
23681;DHT22;62915;50.832;4.462;2022-10-16T04:41:19;15.00;99.90
23681;DHT22;62915;50.832;4.462;2022-10-16T04:43:45;14.90;99.90
23681;DHT22;62915;50.832;4.462;2022-10-16T04:46:11;14.90;99.90
23681;DHT22;62915;50.832;4.462;2022-10-16T04:48:36;15.00;99.90
23681;DHT22;62915;50.832;4.462;2022-10-16T04:51:02;15.00;99.90
23681;DHT22;62915;50.832;4.462;2022-10-16T04:53:27;15.00;99.90
23681;DHT22;62915;50.832;4.462;2022-10-16T04:55:53;15.00;99.90
23681;DHT22;62915;50.832;4.462;2022-10-16T04:58:19;14.90;99.90
23681;DHT22;62915;50.832;4.462;2022-10-16T05:00:45;14.90;99.90
23681;DHT22;62915;50.832;4.462;2022-10-16T05:03:11;14.90;99.90
23681;DHT22;62915;50.832;4.462;2022-10-16T05:05:41;14.90;99.90
23681;DHT22;62915;50.832;4.462;2022-10-16T05:08:07;14.80;99.90
23681;DHT22;62915;50.832;4.462;2022-10-16T05:10:32;14.80;99.90
23681;DHT22;62915;50.832;4.462;2022-10-16T05:12:59;14.90;99.90
23681;DHT22;62915;50.832;4.462;2022-10-16T05:15:24;14.90;99.90
23681;DHT22;62915;50.832;4.462;2022-10-16T05:17:53;14.90;99.90
23681;DHT22;62915;50.832;4.462;2022-10-16T05:20:19;15.00;99.90
23681;DHT22;62915;50.832;4.462;2022-10-16T05:22:45;14.90;99.90
23681;DHT22;62915;50.832;4.462;2022-10-16T05:25:10;14.90;99.90
23681;DHT22;62915;50.832;4.462;2022-10-16T05:27:36;14.90;99.90
23681;DHT22;62915;50.832;4.462;2022-10-16T05:30:02;14.90;99.90
23681;DHT22;62915;50.832;4.462;2022-10-16T05:32:28;14.90;99.90
23681;DHT22;62915;50.832;4.462;2022-10-16T05:34:54;14.90;99.90
23681;DHT22;62915;50.832;4.462;2022-10-16T05:37:20;14.80;99.90
23681;DHT22;62915;50.832;4.462;2022-10-16T05:39:45;14.80;99.90
23681;DHT22;62915;50.832;4.462;2022-10-16T05:42:11;14.80;99.90
23681;DHT22;62915;50.832;4.462;2022-10-16T05:44:36;14.70;99.90
23681;DHT22;62915;50.832;4.462;2022-10-16T05:47:02;14.60;99.90
23681;DHT22;62915;50.832;4.462;2022-10-16T05:49:28;14.70;99.90
23681;DHT22;62915;50.832;4.462;2022-10-16T05:51:53;14.60;99.90
23681;DHT22;62915;50.832;4.462;2022-10-16T05:54:19;14.60;99.90
23681;DHT22;62915;50.832;4.462;2022-10-16T05:56:44;14.70;99.90
23681;DHT22;62915;50.832;4.462;2022-10-16T05:59:11;14.60;99.90
23681;DHT22;62915;50.832;4.462;2022-10-16T06:01:37;14.60;99.90
23681;DHT22;62915;50.832;4.462;2022-10-16T06:04:02;14.60;99.90
23681;DHT22;62915;50.832;4.462;2022-10-16T06:06:28;14.50;99.90
23681;DHT22;62915;50.832;4.462;2022-10-16T06:08:55;14.50;99.90
23681;DHT22;62915;50.832;4.462;2022-10-16T06:11:22;14.60;99.90
23681;DHT22;62915;50.832;4.462;2022-10-16T06:13:53;14.50;99.90
23681;DHT22;62915;50.832;4.462;2022-10-16T06:16:18;14.60;99.90
23681;DHT22;62915;50.832;4.462;2022-10-16T06:18:44;14.60;99.90
23681;DHT22;62915;50.832;4.462;2022-10-16T06:21:11;14.60;99.90
23681;DHT22;62915;50.832;4.462;2022-10-16T06:23:36;14.60;99.90
23681;DHT22;62915;50.832;4.462;2022-10-16T06:26:10;14.70;99.90
23681;DHT22;62915;50.832;4.462;2022-10-16T06:28:35;14.70;99.90
23681;DHT22;62915;50.832;4.462;2022-10-16T06:31:02;14.60;99.90
23681;DHT22;62915;50.832;4.462;2022-10-16T06:33:28;14.60;99.90
23681;DHT22;62915;50.832;4.462;2022-10-16T06:35:53;14.70;99.90
23681;DHT22;62915;50.832;4.462;2022-10-16T06:38:19;14.70;99.90
23681;DHT22;62915;50.832;4.462;2022-10-16T06:40:45;14.70;99.90
23681;DHT22;62915;50.832;4.462;2022-10-16T06:43:10;14.70;99.90
23681;DHT22;62915;50.832;4.462;2022-10-16T06:45:36;14.60;99.90
23681;DHT22;62915;50.832;4.462;2022-10-16T06:48:02;14.60;99.90
23681;DHT22;62915;50.832;4.462;2022-10-16T06:50:31;14.60;99.90
23681;DHT22;62915;50.832;4.462;2022-10-16T06:52:59;14.60;99.90
23681;DHT22;62915;50.832;4.462;2022-10-16T06:55:26;14.70;99.90
23681;DHT22;62915;50.832;4.462;2022-10-16T06:57:52;14.70;99.90
23681;DHT22;62915;50.832;4.462;2022-10-16T07:00:18;14.70;99.90
23681;DHT22;62915;50.832;4.462;2022-10-16T07:02:43;14.80;99.90
23681;DHT22;62915;50.832;4.462;2022-10-16T07:05:09;14.80;99.90
23681;DHT22;62915;50.832;4.462;2022-10-16T07:07:39;14.80;99.90
23681;DHT22;62915;50.832;4.462;2022-10-16T07:10:06;14.90;99.90
23681;DHT22;62915;50.832;4.462;2022-10-16T07:12:32;15.20;99.90
23681;DHT22;62915;50.832;4.462;2022-10-16T07:14:57;15.70;99.90
23681;DHT22;62915;50.832;4.462;2022-10-16T07:17:26;16.10;99.90
23681;DHT22;62915;50.832;4.462;2022-10-16T07:19:52;16.40;99.90
23681;DHT22;62915;50.832;4.462;2022-10-16T07:22:18;16.50;99.90
23681;DHT22;62915;50.832;4.462;2022-10-16T07:24:45;16.30;99.90
23681;DHT22;62915;50.832;4.462;2022-10-16T07:27:11;16.10;99.90
23681;DHT22;62915;50.832;4.462;2022-10-16T07:29:37;16.10;99.90
23681;DHT22;62915;50.832;4.462;2022-10-16T07:32:03;16.10;99.90
23681;DHT22;62915;50.832;4.462;2022-10-16T07:34:49;16.10;99.90
23681;DHT22;62915;50.832;4.462;2022-10-16T07:37:18;16.10;99.90
23681;DHT22;62915;50.832;4.462;2022-10-16T07:39:43;16.00;99.90
23681;DHT22;62915;50.832;4.462;2022-10-16T07:42:09;16.10;99.90
23681;DHT22;62915;50.832;4.462;2022-10-16T07:44:36;16.10;99.90
23681;DHT22;62915;50.832;4.462;2022-10-16T07:47:05;16.10;99.90
23681;DHT22;62915;50.832;4.462;2022-10-16T07:49:31;16.00;99.90
23681;DHT22;62915;50.832;4.462;2022-10-16T07:51:58;15.90;99.90
23681;DHT22;62915;50.832;4.462;2022-10-16T07:54:32;15.90;99.90
23681;DHT22;62915;50.832;4.462;2022-10-16T07:56:57;15.80;99.90
23681;DHT22;62915;50.832;4.462;2022-10-16T07:59:23;15.80;99.90
23681;DHT22;62915;50.832;4.462;2022-10-16T08:01:49;15.90;99.90
23681;DHT22;62915;50.832;4.462;2022-10-16T08:04:14;15.90;99.90
23681;DHT22;62915;50.832;4.462;2022-10-16T08:06:40;15.90;99.90
23681;DHT22;62915;50.832;4.462;2022-10-16T08:09:11;16.00;99.90
23681;DHT22;62915;50.832;4.462;2022-10-16T08:11:37;16.00;99.90
23681;DHT22;62915;50.832;4.462;2022-10-16T08:14:05;16.00;99.90
23681;DHT22;62915;50.832;4.462;2022-10-16T08:16:31;16.00;99.90
23681;DHT22;62915;50.832;4.462;2022-10-16T08:18:56;15.90;99.90
23681;DHT22;62915;50.832;4.462;2022-10-16T08:21:22;15.90;99.90
23681;DHT22;62915;50.832;4.462;2022-10-16T08:23:48;16.00;99.90
23681;DHT22;62915;50.832;4.462;2022-10-16T08:26:14;16.00;99.90
23681;DHT22;62915;50.832;4.462;2022-10-16T08:28:40;16.00;99.90
23681;DHT22;62915;50.832;4.462;2022-10-16T08:31:14;16.10;99.90
23681;DHT22;62915;50.832;4.462;2022-10-16T08:33:41;16.10;99.90
23681;DHT22;62915;50.832;4.462;2022-10-16T08:36:09;16.20;99.90
23681;DHT22;62915;50.832;4.462;2022-10-16T08:38:34;16.30;99.90
23681;DHT22;62915;50.832;4.462;2022-10-16T08:43:56;16.30;99.90
23681;DHT22;62915;50.832;4.462;2022-10-16T08:46:30;16.40;99.90
23681;DHT22;62915;50.832;4.462;2022-10-16T08:48:59;16.40;99.90
23681;DHT22;62915;50.832;4.462;2022-10-16T08:51:31;16.40;99.90
23681;DHT22;62915;50.832;4.462;2022-10-16T08:56:23;16.50;99.90
23681;DHT22;62915;50.832;4.462;2022-10-16T08:58:49;16.60;99.90
23681;DHT22;62915;50.832;4.462;2022-10-16T09:01:16;16.80;99.90
23681;DHT22;62915;50.832;4.462;2022-10-16T09:17:03;17.80;99.90
23681;DHT22;62915;50.832;4.462;2022-10-16T09:19:35;18.20;99.90
23681;DHT22;62915;50.832;4.462;2022-10-16T09:22:13;18.40;99.90
23681;DHT22;62915;50.832;4.462;2022-10-16T09:24:39;18.70;99.90
23681;DHT22;62915;50.832;4.462;2022-10-16T09:27:08;18.90;99.90
23681;DHT22;62915;50.832;4.462;2022-10-16T09:29:36;19.10;99.90
23681;DHT22;62915;50.832;4.462;2022-10-16T09:32:08;19.40;99.90
23681;DHT22;62915;50.832;4.462;2022-10-16T09:34:35;19.50;99.90
23681;DHT22;62915;50.832;4.462;2022-10-16T09:37:07;19.80;99.90
23681;DHT22;62915;50.832;4.462;2022-10-16T09:39:53;20.10;99.90
23681;DHT22;62915;50.832;4.462;2022-10-16T09:44:49;20.60;99.90
23681;DHT22;62915;50.832;4.462;2022-10-16T09:47:16;20.70;99.90
23681;DHT22;62915;50.832;4.462;2022-10-16T09:49:53;20.90;99.90
23681;DHT22;62915;50.832;4.462;2022-10-16T09:52:21;21.00;99.90
23681;DHT22;62915;50.832;4.462;2022-10-16T09:55:00;21.10;99.90
23681;DHT22;62915;50.832;4.462;2022-10-16T09:57:27;21.40;99.90
23681;DHT22;62915;50.832;4.462;2022-10-16T09:59:56;21.40;99.90
23681;DHT22;62915;50.832;4.462;2022-10-16T10:02:29;21.60;99.90
23681;DHT22;62915;50.832;4.462;2022-10-16T10:04:55;21.80;99.90
23681;DHT22;62915;50.832;4.462;2022-10-16T10:07:28;22.00;99.90
23681;DHT22;62915;50.832;4.462;2022-10-16T10:09:58;22.00;99.90
23681;DHT22;62915;50.832;4.462;2022-10-16T10:12:25;22.10;99.90
23681;DHT22;62915;50.832;4.462;2022-10-16T10:14:52;22.10;99.90
23681;DHT22;62915;50.832;4.462;2022-10-16T10:17:19;22.20;99.90
23681;DHT22;62915;50.832;4.462;2022-10-16T10:19:53;22.30;99.90
23681;DHT22;62915;50.832;4.462;2022-10-16T10:22:23;22.40;99.90
23681;DHT22;62915;50.832;4.462;2022-10-16T10:27:26;22.70;99.90
23681;DHT22;62915;50.832;4.462;2022-10-16T10:35:00;22.60;99.90
23681;DHT22;62915;50.832;4.462;2022-10-16T10:37:37;22.60;99.90
23681;DHT22;62915;50.832;4.462;2022-10-16T10:40:22;21.80;99.90
23681;DHT22;62915;50.832;4.462;2022-10-16T10:42:51;21.70;99.90
23681;DHT22;62915;50.832;4.462;2022-10-16T10:45:24;21.90;99.90
23681;DHT22;62915;50.832;4.462;2022-10-16T10:50:30;21.70;99.90
23681;DHT22;62915;50.832;4.462;2022-10-16T11:00:28;21.10;99.90
23681;DHT22;62915;50.832;4.462;2022-10-16T11:05:31;20.90;99.90
23681;DHT22;62915;50.832;4.462;2022-10-16T11:08:00;20.60;99.90
23681;DHT22;62915;50.832;4.462;2022-10-16T11:10:27;20.50;99.90
23681;DHT22;62915;50.832;4.462;2022-10-16T11:13:17;20.20;99.90
23681;DHT22;62915;50.832;4.462;2022-10-16T11:15:39;20.10;99.90
23681;DHT22;62915;50.832;4.462;2022-10-16T11:18:30;20.10;99.90
23681;DHT22;62915;50.832;4.462;2022-10-16T11:20:53;20.20;99.90
23681;DHT22;62915;50.832;4.462;2022-10-16T11:25:56;20.80;99.90
23681;DHT22;62915;50.832;4.462;2022-10-16T11:28:27;21.20;99.90
23681;DHT22;62915;50.832;4.462;2022-10-16T11:35:59;21.80;99.90
23681;DHT22;62915;50.832;4.462;2022-10-16T11:38:27;22.00;99.90
23681;DHT22;62915;50.832;4.462;2022-10-16T11:40:57;22.20;99.90
23681;DHT22;62915;50.832;4.462;2022-10-16T11:43:25;22.40;99.90
23681;DHT22;62915;50.832;4.462;2022-10-16T11:45:52;22.30;99.90
23681;DHT22;62915;50.832;4.462;2022-10-16T11:51:00;22.00;99.90
23681;DHT22;62915;50.832;4.462;2022-10-16T11:56:20;22.00;99.90
23681;DHT22;62915;50.832;4.462;2022-10-16T11:58:52;21.90;99.90
23681;DHT22;62915;50.832;4.462;2022-10-16T12:01:28;21.70;99.90
23681;DHT22;62915;50.832;4.462;2022-10-16T12:03:59;21.60;99.90
23681;DHT22;62915;50.832;4.462;2022-10-16T12:06:34;21.50;99.90
23681;DHT22;62915;50.832;4.462;2022-10-16T12:09:00;21.30;99.90
23681;DHT22;62915;50.832;4.462;2022-10-16T12:14:39;21.10;99.90
23681;DHT22;62915;50.832;4.462;2022-10-16T12:16:50;21.10;99.90
23681;DHT22;62915;50.832;4.462;2022-10-16T12:19:16;20.80;99.90
23681;DHT22;62915;50.832;4.462;2022-10-16T12:21:42;20.70;99.90
23681;DHT22;62915;50.832;4.462;2022-10-16T12:24:22;20.70;99.90
23681;DHT22;62915;50.832;4.462;2022-10-16T12:26:52;20.60;99.90
23681;DHT22;62915;50.832;4.462;2022-10-16T12:29:22;20.50;99.90
23681;DHT22;62915;50.832;4.462;2022-10-16T12:31:48;20.50;99.90
23681;DHT22;62915;50.832;4.462;2022-10-16T12:34:37;20.60;99.90
23681;DHT22;62915;50.832;4.462;2022-10-16T12:37:08;20.70;99.90
23681;DHT22;62915;50.832;4.462;2022-10-16T12:39:34;20.80;99.90
23681;DHT22;62915;50.832;4.462;2022-10-16T12:42:20;20.80;99.90
23681;DHT22;62915;50.832;4.462;2022-10-16T12:44:46;20.80;99.90
23681;DHT22;62915;50.832;4.462;2022-10-16T12:50:22;20.80;99.90
23681;DHT22;62915;50.832;4.462;2022-10-16T12:52:48;20.60;99.90
23681;DHT22;62915;50.832;4.462;2022-10-16T12:55:17;20.60;99.90
23681;DHT22;62915;50.832;4.462;2022-10-16T13:18:56;20.60;99.90
23681;DHT22;62915;50.832;4.462;2022-10-16T13:21:16;20.70;99.90
23681;DHT22;62915;50.832;4.462;2022-10-16T13:26:25;20.80;99.90
23681;DHT22;62915;50.832;4.462;2022-10-16T13:28:54;20.90;99.90
23681;DHT22;62915;50.832;4.462;2022-10-16T13:31:23;20.70;99.90
23681;DHT22;62915;50.832;4.462;2022-10-16T13:33:51;20.60;99.90
23681;DHT22;62915;50.832;4.462;2022-10-16T13:36:21;20.60;99.90
23681;DHT22;62915;50.832;4.462;2022-10-16T13:38:47;20.60;99.90
23681;DHT22;62915;50.832;4.462;2022-10-16T13:41:13;20.60;99.90
23681;DHT22;62915;50.832;4.462;2022-10-16T13:43:40;20.80;99.90
23681;DHT22;62915;50.832;4.462;2022-10-16T13:46:10;20.70;99.90
23681;DHT22;62915;50.832;4.462;2022-10-16T13:48:37;20.70;99.90
23681;DHT22;62915;50.832;4.462;2022-10-16T13:51:21;20.80;99.90
23681;DHT22;62915;50.832;4.462;2022-10-16T13:53:46;20.70;99.90
23681;DHT22;62915;50.832;4.462;2022-10-16T13:56:13;20.70;99.90
23681;DHT22;62915;50.832;4.462;2022-10-16T13:58:40;20.70;99.90
23681;DHT22;62915;50.832;4.462;2022-10-16T14:01:14;20.70;99.90
23681;DHT22;62915;50.832;4.462;2022-10-16T14:03:42;20.60;99.90
23681;DHT22;62915;50.832;4.462;2022-10-16T14:06:11;20.50;99.90
23681;DHT22;62915;50.832;4.462;2022-10-16T14:08:40;20.60;99.90
23681;DHT22;62915;50.832;4.462;2022-10-16T14:11:08;20.60;99.90
23681;DHT22;62915;50.832;4.462;2022-10-16T14:13:36;20.60;99.90
23681;DHT22;62915;50.832;4.462;2022-10-16T14:16:05;20.60;99.90
23681;DHT22;62915;50.832;4.462;2022-10-16T14:18:33;20.60;99.90
23681;DHT22;62915;50.832;4.462;2022-10-16T14:21:02;20.50;99.90
23681;DHT22;62915;50.832;4.462;2022-10-16T14:23:29;20.50;99.90
23681;DHT22;62915;50.832;4.462;2022-10-16T14:29:01;20.60;99.90
23681;DHT22;62915;50.832;4.462;2022-10-16T14:31:29;20.60;99.90
23681;DHT22;62915;50.832;4.462;2022-10-16T14:33:55;20.60;99.90
23681;DHT22;62915;50.832;4.462;2022-10-16T14:36:21;20.60;99.90
23681;DHT22;62915;50.832;4.462;2022-10-16T14:41:22;20.60;99.90
23681;DHT22;62915;50.832;4.462;2022-10-16T14:43:50;20.60;99.90
23681;DHT22;62915;50.832;4.462;2022-10-16T14:46:18;20.60;99.90
23681;DHT22;62915;50.832;4.462;2022-10-16T14:48:46;20.70;99.90
23681;DHT22;62915;50.832;4.462;2022-10-16T14:51:16;20.70;99.90
23681;DHT22;62915;50.832;4.462;2022-10-16T14:53:42;20.70;99.90
23681;DHT22;62915;50.832;4.462;2022-10-16T14:56:30;20.70;99.90
23681;DHT22;62915;50.832;4.462;2022-10-16T14:58:53;20.70;99.90
23681;DHT22;62915;50.832;4.462;2022-10-16T15:01:20;20.70;99.90
23681;DHT22;62915;50.832;4.462;2022-10-16T15:03:45;20.70;99.90
23681;DHT22;62915;50.832;4.462;2022-10-16T15:06:11;20.60;99.90
23681;DHT22;62915;50.832;4.462;2022-10-16T15:08:37;20.60;99.90
23681;DHT22;62915;50.832;4.462;2022-10-16T15:11:03;20.60;99.90
23681;DHT22;62915;50.832;4.462;2022-10-16T15:13:28;20.60;99.90
23681;DHT22;62915;50.832;4.462;2022-10-16T15:15:54;20.60;99.90
23681;DHT22;62915;50.832;4.462;2022-10-16T15:18:20;20.60;99.90
23681;DHT22;62915;50.832;4.462;2022-10-16T15:20:47;20.60;99.90
23681;DHT22;62915;50.832;4.462;2022-10-16T15:23:14;20.60;99.90
23681;DHT22;62915;50.832;4.462;2022-10-16T15:25:45;20.60;99.90
23681;DHT22;62915;50.832;4.462;2022-10-16T15:28:11;20.50;99.90
23681;DHT22;62915;50.832;4.462;2022-10-16T15:30:37;20.50;99.90
23681;DHT22;62915;50.832;4.462;2022-10-16T15:33:03;20.40;99.90
23681;DHT22;62915;50.832;4.462;2022-10-16T15:35:28;20.40;99.90
23681;DHT22;62915;50.832;4.462;2022-10-16T15:37:54;20.40;99.90
23681;DHT22;62915;50.832;4.462;2022-10-16T15:40:20;20.30;99.90
23681;DHT22;62915;50.832;4.462;2022-10-16T15:42:45;20.30;99.90
23681;DHT22;62915;50.832;4.462;2022-10-16T15:45:11;20.30;99.90
23681;DHT22;62915;50.832;4.462;2022-10-16T15:47:37;20.20;99.90
23681;DHT22;62915;50.832;4.462;2022-10-16T15:50:03;20.20;99.90
23681;DHT22;62915;50.832;4.462;2022-10-16T15:52:29;20.10;99.90
23681;DHT22;62915;50.832;4.462;2022-10-16T15:54:57;20.10;99.90
23681;DHT22;62915;50.832;4.462;2022-10-16T15:57:22;20.00;99.90
23681;DHT22;62915;50.832;4.462;2022-10-16T15:59:49;20.00;99.90
23681;DHT22;62915;50.832;4.462;2022-10-16T16:02:14;19.90;99.90
23681;DHT22;62915;50.832;4.462;2022-10-16T16:04:40;19.90;99.90
23681;DHT22;62915;50.832;4.462;2022-10-16T16:07:06;19.80;99.90
23681;DHT22;62915;50.832;4.462;2022-10-16T16:09:32;19.70;99.90
23681;DHT22;62915;50.832;4.462;2022-10-16T16:11:58;19.70;99.90
23681;DHT22;62915;50.832;4.462;2022-10-16T16:14:26;19.70;99.90
23681;DHT22;62915;50.832;4.462;2022-10-16T16:16:54;19.60;99.90
23681;DHT22;62915;50.832;4.462;2022-10-16T16:19:19;19.60;99.90
23681;DHT22;62915;50.832;4.462;2022-10-16T16:21:46;19.50;99.90
23681;DHT22;62915;50.832;4.462;2022-10-16T16:24:12;19.50;99.90
23681;DHT22;62915;50.832;4.462;2022-10-16T16:26:38;19.40;99.90
23681;DHT22;62915;50.832;4.462;2022-10-16T16:29:05;19.50;99.90
23681;DHT22;62915;50.832;4.462;2022-10-16T16:31:31;19.40;99.90
23681;DHT22;62915;50.832;4.462;2022-10-16T16:33:58;19.40;99.90
23681;DHT22;62915;50.832;4.462;2022-10-16T16:36:24;19.30;99.90
23681;DHT22;62915;50.832;4.462;2022-10-16T16:38:49;19.30;99.90
23681;DHT22;62915;50.832;4.462;2022-10-16T16:41:16;19.30;99.90
23681;DHT22;62915;50.832;4.462;2022-10-16T16:43:42;19.30;99.90
23681;DHT22;62915;50.832;4.462;2022-10-16T16:46:08;19.20;99.90
23681;DHT22;62915;50.832;4.462;2022-10-16T16:48:34;19.20;99.90
23681;DHT22;62915;50.832;4.462;2022-10-16T16:51:07;19.20;99.90
23681;DHT22;62915;50.832;4.462;2022-10-16T16:53:33;19.20;99.90
23681;DHT22;62915;50.832;4.462;2022-10-16T16:56:03;19.10;99.90
23681;DHT22;62915;50.832;4.462;2022-10-16T16:58:29;19.10;99.90
23681;DHT22;62915;50.832;4.462;2022-10-16T17:00:54;19.00;99.90
23681;DHT22;62915;50.832;4.462;2022-10-16T17:03:20;19.00;99.90
23681;DHT22;62915;50.832;4.462;2022-10-16T17:05:59;18.90;99.90
23681;DHT22;62915;50.832;4.462;2022-10-16T17:08:25;18.90;99.90
23681;DHT22;62915;50.832;4.462;2022-10-16T17:10:51;18.90;99.90
23681;DHT22;62915;50.832;4.462;2022-10-16T17:13:22;18.70;99.90
23681;DHT22;62915;50.832;4.462;2022-10-16T17:15:49;18.70;99.90
23681;DHT22;62915;50.832;4.462;2022-10-16T17:18:14;18.70;99.90
23681;DHT22;62915;50.832;4.462;2022-10-16T17:20:40;18.70;99.90
23681;DHT22;62915;50.832;4.462;2022-10-16T17:23:06;18.70;99.90
23681;DHT22;62915;50.832;4.462;2022-10-16T17:25:37;18.70;99.90
23681;DHT22;62915;50.832;4.462;2022-10-16T17:28:03;18.70;99.90
23681;DHT22;62915;50.832;4.462;2022-10-16T17:30:29;18.70;99.90
23681;DHT22;62915;50.832;4.462;2022-10-16T17:32:54;18.60;99.90
23681;DHT22;62915;50.832;4.462;2022-10-16T17:35:20;18.60;99.90
23681;DHT22;62915;50.832;4.462;2022-10-16T17:37:45;18.60;99.90
23681;DHT22;62915;50.832;4.462;2022-10-16T17:40:11;18.60;99.90